Oconto Falls, Wisconsin
Current Conditions -  °F | °C
As of 2:15 AM on Tuesday 21 Oct 2014 (Local Time) from KOCQ Reporting Station
Overcast Overcast  
Wind Chill: 40°   Ceiling: 2300
Heat Index: 44°   Visibility: 10mi
Dew Point: 39°   Wind: 7mph
Humidity: 82%   Direction: 350°N
Pressure: 30.06"   Gusts: NA
Location:  44.87°N, 88.14°W
Report Text: KOCQ 210715Z AUTO 35006KT 10SM BKN023 OVC060 07/04 A3006 RMK AO1 T00650037
Loading
Personal Weather Stations






























Interactive Weather Map
Tropical Storm Tracking
New forecast layout! Learn more

10-Day Weather Forecast

Advertisements
Track Severe Weather on mobile